Terminal Aerodrome Forecast
Issued by NWS Louisville, KY

Home | Current Version | Previous Version | Text Only | Print | Product List | Glossary On
Versions: 1 2 3 4 5 6 7 8 9 10 11 12 13 14
000
FTUS43 KLMK 281100
TAFLEX
TAF
KLEX 281125Z 2812/2912 21013G22KT P6SM BKN050
     FM281700 24012KT P6SM SHRA VCTS BKN035CB
      TEMPO 2818/2821 5SM BR BKN025
     FM282200 28008KT P6SM BKN050
     FM290100 32005KT P6SM SCT050=

USA.gov is the U.S. government's official web portal to all federal, state and local government web resources and services.